KELM/ELM METAR and TAF weather

Enter ICAO airport designator
Station Type Date Time Source
KELM METAR 2019/04/18 19:53 UTC NOAA

KELM 181953Z 18010G17KT 10SM SCT080 BKN100 19/09 A2979 RMK AO2 SLP085 T01890094


Station Type Date Time Source
KELM Decoded METAR 2019/04/18 19:53 UTC NOAA

ELMIRA COUNTY AIRPORT, NY, United States (KELM) 42-10N 76-54W 302M
Apr 18, 2019 - 03:53 PM EDT / 2019.04.18 1953 UTC
Wind: from the S (180 degrees) at 12 MPH (10 KT) gusting to 20 MPH (17 KT):0
Visibility: 10 mile(s):0
Sky conditions: mostly cloudy
Temperature: 66.0 F (18.9 C)
Dew Point: 48.9 F (9.4 C)
Relative Humidity: 54%
Pressure (altimeter): 29.79 in. Hg (1008 hPa)
ob: KELM 181953Z 18010G17KT 10SM SCT080 BKN100 19/09 A2979 RMK AO2 SLP085 T01890094
cycle: 20

Station Type Date Time Source
KELM TAF 2019/04/18 18:39 UTC NOAA

TAF
AMD KELM 181737Z 1818/1918 19015G23KT P6SM FEW035 BKN050
FM190100 19011KT P6SM BKN220 WS020/20040KT
FM191200 20010KT P6SM SCT028 BKN040
FM191400 19010G18KT P6SM OVC025
FM191700 19012G20KT P6SM OVC035

Example: see airport list